sensor_id;sensor_type;location;lat;lon;timestamp;temperature;humidity
51215;DHT22;63849;47.546;19.254;2023-01-15T00:01:27;5.00;84.30
51215;DHT22;63849;47.546;19.254;2023-01-15T00:03:54;5.00;84.30
51215;DHT22;63849;47.546;19.254;2023-01-15T00:06:22;5.00;84.30
51215;DHT22;63849;47.546;19.254;2023-01-15T00:08:48;5.00;84.10
51215;DHT22;63849;47.546;19.254;2023-01-15T00:11:14;4.90;84.10
51215;DHT22;63849;47.546;19.254;2023-01-15T00:13:41;5.00;84.30
51215;DHT22;63849;47.546;19.254;2023-01-15T00:16:12;5.00;84.30
51215;DHT22;63849;47.546;19.254;2023-01-15T00:18:38;5.10;84.00
51215;DHT22;63849;47.546;19.254;2023-01-15T00:21:07;5.00;84.00
51215;DHT22;63849;47.546;19.254;2023-01-15T00:23:33;5.00;83.80
51215;DHT22;63849;47.546;19.254;2023-01-15T00:26:19;5.10;83.70
51215;DHT22;63849;47.546;19.254;2023-01-15T00:29:04;5.00;83.50
51215;DHT22;63849;47.546;19.254;2023-01-15T00:31:31;5.00;83.40
51215;DHT22;63849;47.546;19.254;2023-01-15T00:33:59;5.00;83.20
51215;DHT22;63849;47.546;19.254;2023-01-15T00:36:25;5.00;83.30
51215;DHT22;63849;47.546;19.254;2023-01-15T00:38:51;5.00;83.50
51215;DHT22;63849;47.546;19.254;2023-01-15T00:41:17;5.00;83.50
51215;DHT22;63849;47.546;19.254;2023-01-15T00:43:43;4.90;83.60
51215;DHT22;63849;47.546;19.254;2023-01-15T00:46:09;5.00;83.70
51215;DHT22;63849;47.546;19.254;2023-01-15T00:48:35;4.90;83.50
51215;DHT22;63849;47.546;19.254;2023-01-15T00:51:02;4.80;83.70
51215;DHT22;63849;47.546;19.254;2023-01-15T00:53:29;5.00;83.50
51215;DHT22;63849;47.546;19.254;2023-01-15T00:55:56;4.90;83.60
51215;DHT22;63849;47.546;19.254;2023-01-15T00:58:22;4.80;83.90
51215;DHT22;63849;47.546;19.254;2023-01-15T01:00:55;4.80;84.20
51215;DHT22;63849;47.546;19.254;2023-01-15T01:03:22;4.80;84.00
51215;DHT22;63849;47.546;19.254;2023-01-15T01:05:49;4.80;83.90
51215;DHT22;63849;47.546;19.254;2023-01-15T01:08:15;4.80;83.90
51215;DHT22;63849;47.546;19.254;2023-01-15T01:10:41;4.80;83.70
51215;DHT22;63849;47.546;19.254;2023-01-15T01:13:08;4.80;83.80
51215;DHT22;63849;47.546;19.254;2023-01-15T01:15:35;4.70;84.00
51215;DHT22;63849;47.546;19.254;2023-01-15T01:18:01;4.80;84.20
51215;DHT22;63849;47.546;19.254;2023-01-15T01:20:28;4.80;84.30
51215;DHT22;63849;47.546;19.254;2023-01-15T01:22:55;4.70;84.10
51215;DHT22;63849;47.546;19.254;2023-01-15T01:25:21;4.80;84.40
51215;DHT22;63849;47.546;19.254;2023-01-15T01:27:47;4.70;84.30
51215;DHT22;63849;47.546;19.254;2023-01-15T01:30:13;4.80;84.10
51215;DHT22;63849;47.546;19.254;2023-01-15T01:32:42;4.80;84.10
51215;DHT22;63849;47.546;19.254;2023-01-15T01:35:08;4.90;83.90
51215;DHT22;63849;47.546;19.254;2023-01-15T01:37:35;4.80;83.80
51215;DHT22;63849;47.546;19.254;2023-01-15T01:40:01;4.90;83.70
51215;DHT22;63849;47.546;19.254;2023-01-15T01:42:27;4.80;83.70
51215;DHT22;63849;47.546;19.254;2023-01-15T01:47:45;4.80;83.50
51215;DHT22;63849;47.546;19.254;2023-01-15T01:50:12;4.90;83.70
51215;DHT22;63849;47.546;19.254;2023-01-15T01:52:46;4.80;83.60
51215;DHT22;63849;47.546;19.254;2023-01-15T01:55:16;4.80;83.60
51215;DHT22;63849;47.546;19.254;2023-01-15T01:57:43;4.80;83.70
51215;DHT22;63849;47.546;19.254;2023-01-15T02:00:10;4.80;83.50
51215;DHT22;63849;47.546;19.254;2023-01-15T02:02:37;4.80;83.40
51215;DHT22;63849;47.546;19.254;2023-01-15T02:05:04;4.80;83.30
51215;DHT22;63849;47.546;19.254;2023-01-15T02:07:31;4.80;83.50
51215;DHT22;63849;47.546;19.254;2023-01-15T02:09:58;4.80;83.80
51215;DHT22;63849;47.546;19.254;2023-01-15T02:12:30;4.80;83.60
51215;DHT22;63849;47.546;19.254;2023-01-15T02:15:15;4.80;83.60
51215;DHT22;63849;47.546;19.254;2023-01-15T02:17:52;4.80;83.90
51215;DHT22;63849;47.546;19.254;2023-01-15T02:20:25;4.80;84.20
51215;DHT22;63849;47.546;19.254;2023-01-15T02:23:03;4.80;84.20
51215;DHT22;63849;47.546;19.254;2023-01-15T02:33:39;4.80;84.40
51215;DHT22;63849;47.546;19.254;2023-01-15T02:36:08;4.70;84.60
51215;DHT22;63849;47.546;19.254;2023-01-15T02:38:39;4.70;84.80
51215;DHT22;63849;47.546;19.254;2023-01-15T02:41:08;4.70;84.60
51215;DHT22;63849;47.546;19.254;2023-01-15T02:43:50;4.70;84.70
51215;DHT22;63849;47.546;19.254;2023-01-15T02:46:17;4.80;84.60
51215;DHT22;63849;47.546;19.254;2023-01-15T02:48:47;4.80;84.40
51215;DHT22;63849;47.546;19.254;2023-01-15T02:51:17;4.70;84.50
51215;DHT22;63849;47.546;19.254;2023-01-15T02:53:46;4.50;84.10
51215;DHT22;63849;47.546;19.254;2023-01-15T02:56:16;4.60;84.20
51215;DHT22;63849;47.546;19.254;2023-01-15T02:58:44;4.70;84.00
51215;DHT22;63849;47.546;19.254;2023-01-15T03:02:00;4.60;84.20
51215;DHT22;63849;47.546;19.254;2023-01-15T03:09:08;4.70;84.20
51215;DHT22;63849;47.546;19.254;2023-01-15T03:11:38;4.70;83.80
51215;DHT22;63849;47.546;19.254;2023-01-15T03:14:22;4.70;83.60
51215;DHT22;63849;47.546;19.254;2023-01-15T03:16:58;4.80;83.80
51215;DHT22;63849;47.546;19.254;2023-01-15T03:19:51;4.70;84.40
51215;DHT22;63849;47.546;19.254;2023-01-15T03:22:35;4.60;84.70
51215;DHT22;63849;47.546;19.254;2023-01-15T03:25:09;4.70;84.60
51215;DHT22;63849;47.546;19.254;2023-01-15T03:27:36;4.70;84.30
51215;DHT22;63849;47.546;19.254;2023-01-15T03:30:14;4.70;84.40
51215;DHT22;63849;47.546;19.254;2023-01-15T03:32:41;4.70;84.70
51215;DHT22;63849;47.546;19.254;2023-01-15T03:35:37;4.80;84.50
51215;DHT22;63849;47.546;19.254;2023-01-15T03:37:53;4.80;84.60
51215;DHT22;63849;47.546;19.254;2023-01-15T03:40:19;4.70;84.40
51215;DHT22;63849;47.546;19.254;2023-01-15T03:42:49;4.70;84.40
51215;DHT22;63849;47.546;19.254;2023-01-15T03:45:41;4.70;84.40
51215;DHT22;63849;47.546;19.254;2023-01-15T03:48:26;4.70;84.20
51215;DHT22;63849;47.546;19.254;2023-01-15T03:51:07;4.60;84.30
51215;DHT22;63849;47.546;19.254;2023-01-15T03:53:44;4.60;84.20
51215;DHT22;63849;47.546;19.254;2023-01-15T03:57:02;4.60;84.10
51215;DHT22;63849;47.546;19.254;2023-01-15T03:59:28;4.70;83.80
51215;DHT22;63849;47.546;19.254;2023-01-15T04:01:56;4.60;83.60
51215;DHT22;63849;47.546;19.254;2023-01-15T04:04:24;4.70;83.50
51215;DHT22;63849;47.546;19.254;2023-01-15T04:06:51;4.60;83.50
51215;DHT22;63849;47.546;19.254;2023-01-15T04:09:18;4.70;83.50
51215;DHT22;63849;47.546;19.254;2023-01-15T04:11:44;4.60;83.30
51215;DHT22;63849;47.546;19.254;2023-01-15T04:14:14;4.70;83.20
51215;DHT22;63849;47.546;19.254;2023-01-15T04:16:40;4.70;83.20
51215;DHT22;63849;47.546;19.254;2023-01-15T04:19:06;4.80;83.20
51215;DHT22;63849;47.546;19.254;2023-01-15T04:21:32;4.80;83.50
51215;DHT22;63849;47.546;19.254;2023-01-15T04:23:57;4.80;83.50
51215;DHT22;63849;47.546;19.254;2023-01-15T04:26:23;4.80;83.30
51215;DHT22;63849;47.546;19.254;2023-01-15T04:28:49;4.80;83.10
51215;DHT22;63849;47.546;19.254;2023-01-15T04:31:15;4.80;82.90
51215;DHT22;63849;47.546;19.254;2023-01-15T04:33:41;4.80;82.70
51215;DHT22;63849;47.546;19.254;2023-01-15T04:36:07;4.80;82.70
51215;DHT22;63849;47.546;19.254;2023-01-15T04:38:36;4.80;83.00
51215;DHT22;63849;47.546;19.254;2023-01-15T04:41:03;4.80;83.00
51215;DHT22;63849;47.546;19.254;2023-01-15T04:43:47;4.80;82.80
51215;DHT22;63849;47.546;19.254;2023-01-15T04:46:33;4.80;82.80
51215;DHT22;63849;47.546;19.254;2023-01-15T04:48:59;4.80;82.90
51215;DHT22;63849;47.546;19.254;2023-01-15T04:51:24;4.80;83.00
51215;DHT22;63849;47.546;19.254;2023-01-15T04:53:50;4.70;82.90
51215;DHT22;63849;47.546;19.254;2023-01-15T04:56:16;4.70;82.90
51215;DHT22;63849;47.546;19.254;2023-01-15T04:58:42;4.80;82.80
51215;DHT22;63849;47.546;19.254;2023-01-15T05:01:12;4.70;82.70
51215;DHT22;63849;47.546;19.254;2023-01-15T05:03:39;4.60;82.80
51215;DHT22;63849;47.546;19.254;2023-01-15T05:06:05;4.70;82.70
51215;DHT22;63849;47.546;19.254;2023-01-15T05:08:31;4.70;82.60
51215;DHT22;63849;47.546;19.254;2023-01-15T05:11:05;4.70;82.60
51215;DHT22;63849;47.546;19.254;2023-01-15T05:13:31;4.60;82.60
51215;DHT22;63849;47.546;19.254;2023-01-15T05:16:21;4.70;82.70
51215;DHT22;63849;47.546;19.254;2023-01-15T05:18:50;4.80;82.80
51215;DHT22;63849;47.546;19.254;2023-01-15T05:21:25;4.80;82.70
51215;DHT22;63849;47.546;19.254;2023-01-15T05:23:53;4.80;82.70
51215;DHT22;63849;47.546;19.254;2023-01-15T05:26:20;4.80;82.60
51215;DHT22;63849;47.546;19.254;2023-01-15T05:28:46;4.80;82.70
51215;DHT22;63849;47.546;19.254;2023-01-15T05:31:15;4.80;82.70
51215;DHT22;63849;47.546;19.254;2023-01-15T05:33:42;4.80;82.70
51215;DHT22;63849;47.546;19.254;2023-01-15T05:36:13;4.80;82.70
51215;DHT22;63849;47.546;19.254;2023-01-15T05:38:40;4.70;82.60
51215;DHT22;63849;47.546;19.254;2023-01-15T05:41:08;4.80;82.90
51215;DHT22;63849;47.546;19.254;2023-01-15T05:43:53;4.70;82.80
51215;DHT22;63849;47.546;19.254;2023-01-15T05:46:19;4.80;82.90
51215;DHT22;63849;47.546;19.254;2023-01-15T05:48:45;4.80;82.80
51215;DHT22;63849;47.546;19.254;2023-01-15T05:51:11;4.70;83.00
51215;DHT22;63849;47.546;19.254;2023-01-15T05:53:37;4.80;83.00
51215;DHT22;63849;47.546;19.254;2023-01-15T05:56:03;4.70;83.00
51215;DHT22;63849;47.546;19.254;2023-01-15T05:58:30;4.70;83.20
51215;DHT22;63849;47.546;19.254;2023-01-15T06:00:56;4.70;83.10
51215;DHT22;63849;47.546;19.254;2023-01-15T06:03:23;4.80;83.20
51215;DHT22;63849;47.546;19.254;2023-01-15T06:05:53;4.70;83.20
51215;DHT22;63849;47.546;19.254;2023-01-15T06:08:20;4.80;83.20
51215;DHT22;63849;47.546;19.254;2023-01-15T06:10:46;4.80;83.30
51215;DHT22;63849;47.546;19.254;2023-01-15T06:13:13;4.80;83.30
51215;DHT22;63849;47.546;19.254;2023-01-15T06:15:39;4.80;83.30
51215;DHT22;63849;47.546;19.254;2023-01-15T06:18:05;4.70;83.30
51215;DHT22;63849;47.546;19.254;2023-01-15T06:20:31;4.70;83.40
51215;DHT22;63849;47.546;19.254;2023-01-15T06:22:57;4.70;83.60
51215;DHT22;63849;47.546;19.254;2023-01-15T06:25:22;4.80;83.50
51215;DHT22;63849;47.546;19.254;2023-01-15T06:27:48;4.70;83.60
51215;DHT22;63849;47.546;19.254;2023-01-15T06:30:14;4.70;83.60
51215;DHT22;63849;47.546;19.254;2023-01-15T06:32:40;4.70;83.60
51215;DHT22;63849;47.546;19.254;2023-01-15T06:35:06;4.80;83.70
51215;DHT22;63849;47.546;19.254;2023-01-15T06:37:32;4.80;83.60
51215;DHT22;63849;47.546;19.254;2023-01-15T06:39:58;4.80;83.50
51215;DHT22;63849;47.546;19.254;2023-01-15T06:42:24;4.80;83.50
51215;DHT22;63849;47.546;19.254;2023-01-15T06:45:12;4.90;83.40
51215;DHT22;63849;47.546;19.254;2023-01-15T06:47:56;5.00;83.30
51215;DHT22;63849;47.546;19.254;2023-01-15T06:50:23;4.90;83.40
51215;DHT22;63849;47.546;19.254;2023-01-15T06:52:50;4.90;83.30
51215;DHT22;63849;47.546;19.254;2023-01-15T06:55:16;5.00;83.40
51215;DHT22;63849;47.546;19.254;2023-01-15T06:57:43;4.90;83.50
51215;DHT22;63849;47.546;19.254;2023-01-15T07:00:10;4.90;83.50
51215;DHT22;63849;47.546;19.254;2023-01-15T07:02:36;4.90;83.60
51215;DHT22;63849;47.546;19.254;2023-01-15T07:05:03;4.90;83.70
51215;DHT22;63849;47.546;19.254;2023-01-15T07:07:29;4.90;83.80
51215;DHT22;63849;47.546;19.254;2023-01-15T07:09:55;5.00;83.80
51215;DHT22;63849;47.546;19.254;2023-01-15T07:12:21;5.00;83.90
51215;DHT22;63849;47.546;19.254;2023-01-15T07:14:47;5.10;83.90
51215;DHT22;63849;47.546;19.254;2023-01-15T07:17:14;5.00;83.80
51215;DHT22;63849;47.546;19.254;2023-01-15T07:19:40;5.10;83.90
51215;DHT22;63849;47.546;19.254;2023-01-15T07:22:06;5.10;83.90
51215;DHT22;63849;47.546;19.254;2023-01-15T07:24:32;5.20;84.00
51215;DHT22;63849;47.546;19.254;2023-01-15T07:26:57;5.20;84.00
51215;DHT22;63849;47.546;19.254;2023-01-15T07:29:23;5.30;84.10
51215;DHT22;63849;47.546;19.254;2023-01-15T07:31:50;5.20;84.00
51215;DHT22;63849;47.546;19.254;2023-01-15T07:34:15;5.20;84.20
51215;DHT22;63849;47.546;19.254;2023-01-15T07:36:42;5.30;84.10
51215;DHT22;63849;47.546;19.254;2023-01-15T07:39:09;5.30;84.10
51215;DHT22;63849;47.546;19.254;2023-01-15T07:41:35;5.30;84.10
51215;DHT22;63849;47.546;19.254;2023-01-15T07:44:20;5.30;84.20
51215;DHT22;63849;47.546;19.254;2023-01-15T07:47:21;5.30;84.20
51215;DHT22;63849;47.546;19.254;2023-01-15T07:50:09;5.30;84.20
51215;DHT22;63849;47.546;19.254;2023-01-15T07:52:36;5.40;84.20
51215;DHT22;63849;47.546;19.254;2023-01-15T07:55:02;5.40;84.10
51215;DHT22;63849;47.546;19.254;2023-01-15T07:57:28;5.30;84.20
51215;DHT22;63849;47.546;19.254;2023-01-15T07:59:54;5.40;84.30
51215;DHT22;63849;47.546;19.254;2023-01-15T08:02:23;5.40;84.30
51215;DHT22;63849;47.546;19.254;2023-01-15T08:04:49;5.40;84.30
51215;DHT22;63849;47.546;19.254;2023-01-15T08:07:14;5.40;84.40
51215;DHT22;63849;47.546;19.254;2023-01-15T08:09:40;5.40;84.30
51215;DHT22;63849;47.546;19.254;2023-01-15T08:12:07;5.40;84.40
51215;DHT22;63849;47.546;19.254;2023-01-15T08:14:51;5.50;84.40
51215;DHT22;63849;47.546;19.254;2023-01-15T08:17:36;5.50;84.40
51215;DHT22;63849;47.546;19.254;2023-01-15T08:20:04;5.40;84.30
51215;DHT22;63849;47.546;19.254;2023-01-15T08:22:31;5.50;84.30
51215;DHT22;63849;47.546;19.254;2023-01-15T08:24:57;5.40;84.40
51215;DHT22;63849;47.546;19.254;2023-01-15T08:27:23;5.50;84.50
51215;DHT22;63849;47.546;19.254;2023-01-15T08:29:48;5.50;84.40
51215;DHT22;63849;47.546;19.254;2023-01-15T08:32:14;5.40;84.50
51215;DHT22;63849;47.546;19.254;2023-01-15T08:34:40;5.50;84.50
51215;DHT22;63849;47.546;19.254;2023-01-15T08:37:06;5.50;84.60
51215;DHT22;63849;47.546;19.254;2023-01-15T08:39:31;5.60;84.50
51215;DHT22;63849;47.546;19.254;2023-01-15T08:41:58;5.60;84.40
51215;DHT22;63849;47.546;19.254;2023-01-15T08:44:24;5.60;84.40
51215;DHT22;63849;47.546;19.254;2023-01-15T08:46:51;5.60;84.50
51215;DHT22;63849;47.546;19.254;2023-01-15T08:49:17;5.70;84.60
51215;DHT22;63849;47.546;19.254;2023-01-15T08:51:44;5.70;84.60
51215;DHT22;63849;47.546;19.254;2023-01-15T08:54:11;5.70;84.50
51215;DHT22;63849;47.546;19.254;2023-01-15T08:56:37;5.70;84.40
51215;DHT22;63849;47.546;19.254;2023-01-15T08:59:04;5.80;84.50
51215;DHT22;63849;47.546;19.254;2023-01-15T09:01:30;5.80;84.40
51215;DHT22;63849;47.546;19.254;2023-01-15T09:03:56;5.80;84.30
51215;DHT22;63849;47.546;19.254;2023-01-15T09:06:23;5.80;84.40
51215;DHT22;63849;47.546;19.254;2023-01-15T09:08:49;5.90;84.40
51215;DHT22;63849;47.546;19.254;2023-01-15T09:11:15;5.90;84.30
51215;DHT22;63849;47.546;19.254;2023-01-15T09:13:41;5.90;84.00
51215;DHT22;63849;47.546;19.254;2023-01-15T09:16:07;5.80;84.10
51215;DHT22;63849;47.546;19.254;2023-01-15T09:18:36;5.90;84.30
51215;DHT22;63849;47.546;19.254;2023-01-15T09:21:04;6.10;84.40
51215;DHT22;63849;47.546;19.254;2023-01-15T09:23:31;6.00;84.20
51215;DHT22;63849;47.546;19.254;2023-01-15T09:26:01;6.10;84.30
51215;DHT22;63849;47.546;19.254;2023-01-15T09:28:29;6.10;84.00
51215;DHT22;63849;47.546;19.254;2023-01-15T09:30:55;6.10;84.00
51215;DHT22;63849;47.546;19.254;2023-01-15T09:33:21;6.20;84.20
51215;DHT22;63849;47.546;19.254;2023-01-15T09:35:47;6.20;84.10
51215;DHT22;63849;47.546;19.254;2023-01-15T09:38:14;6.30;83.90
51215;DHT22;63849;47.546;19.254;2023-01-15T09:40:59;6.30;84.00
51215;DHT22;63849;47.546;19.254;2023-01-15T09:43:39;6.30;83.80
51215;DHT22;63849;47.546;19.254;2023-01-15T09:46:20;6.30;83.50
51215;DHT22;63849;47.546;19.254;2023-01-15T09:56:57;6.30;83.60
51215;DHT22;63849;47.546;19.254;2023-01-15T09:59:32;6.40;83.60
51215;DHT22;63849;47.546;19.254;2023-01-15T10:02:00;6.30;83.50
51215;DHT22;63849;47.546;19.254;2023-01-15T10:04:33;6.40;83.40
51215;DHT22;63849;47.546;19.254;2023-01-15T10:07:11;6.30;83.40
51215;DHT22;63849;47.546;19.254;2023-01-15T10:09:42;6.40;83.40
51215;DHT22;63849;47.546;19.254;2023-01-15T10:12:16;6.40;83.20
51215;DHT22;63849;47.546;19.254;2023-01-15T10:15:16;6.40;83.30
51215;DHT22;63849;47.546;19.254;2023-01-15T10:17:46;6.50;83.30
51215;DHT22;63849;47.546;19.254;2023-01-15T10:31:26;6.60;82.80
51215;DHT22;63849;47.546;19.254;2023-01-15T10:36:41;6.60;82.40
51215;DHT22;63849;47.546;19.254;2023-01-15T10:39:29;6.60;82.40
51215;DHT22;63849;47.546;19.254;2023-01-15T10:45:11;6.70;82.40
51215;DHT22;63849;47.546;19.254;2023-01-15T10:47:38;6.80;82.60
51215;DHT22;63849;47.546;19.254;2023-01-15T10:50:19;6.80;82.30
51215;DHT22;63849;47.546;19.254;2023-01-15T10:55:31;6.80;82.20
51215;DHT22;63849;47.546;19.254;2023-01-15T10:58:07;6.80;82.10
51215;DHT22;63849;47.546;19.254;2023-01-15T11:00:36;6.80;81.80
51215;DHT22;63849;47.546;19.254;2023-01-15T11:03:05;6.90;81.90
51215;DHT22;63849;47.546;19.254;2023-01-15T11:05:37;6.80;81.20
51215;DHT22;63849;47.546;19.254;2023-01-15T11:08:07;6.80;81.20
51215;DHT22;63849;47.546;19.254;2023-01-15T11:10:37;6.90;81.60
51215;DHT22;63849;47.546;19.254;2023-01-15T11:13:24;7.00;81.70
51215;DHT22;63849;47.546;19.254;2023-01-15T11:16:16;7.00;81.20
51215;DHT22;63849;47.546;19.254;2023-01-15T11:19:02;6.90;81.10
51215;DHT22;63849;47.546;19.254;2023-01-15T11:21:47;7.00;81.30
51215;DHT22;63849;47.546;19.254;2023-01-15T11:24:15;7.00;80.70
51215;DHT22;63849;47.546;19.254;2023-01-15T11:26:46;6.90;80.60
51215;DHT22;63849;47.546;19.254;2023-01-15T11:29:15;7.00;80.80
51215;DHT22;63849;47.546;19.254;2023-01-15T11:31:46;7.10;80.80
51215;DHT22;63849;47.546;19.254;2023-01-15T11:34:19;7.10;80.70
51215;DHT22;63849;47.546;19.254;2023-01-15T11:37:00;7.10;80.80
51215;DHT22;63849;47.546;19.254;2023-01-15T11:39:27;7.20;80.70
51215;DHT22;63849;47.546;19.254;2023-01-15T11:42:15;7.20;80.30
51215;DHT22;63849;47.546;19.254;2023-01-15T11:44:59;7.20;80.00
51215;DHT22;63849;47.546;19.254;2023-01-15T11:47:51;7.10;80.20
51215;DHT22;63849;47.546;19.254;2023-01-15T11:50:53;7.10;80.20
51215;DHT22;63849;47.546;19.254;2023-01-15T11:53:21;7.20;80.60
51215;DHT22;63849;47.546;19.254;2023-01-15T11:55:58;7.20;80.20
51215;DHT22;63849;47.546;19.254;2023-01-15T11:58:28;7.20;80.00
51215;DHT22;63849;47.546;19.254;2023-01-15T12:00:56;7.20;80.10
51215;DHT22;63849;47.546;19.254;2023-01-15T12:03:30;7.20;80.00
51215;DHT22;63849;47.546;19.254;2023-01-15T12:06:01;7.20;80.10
51215;DHT22;63849;47.546;19.254;2023-01-15T12:08:48;7.20;80.00
51215;DHT22;63849;47.546;19.254;2023-01-15T12:16:44;7.10;80.00
51215;DHT22;63849;47.546;19.254;2023-01-15T12:28:17;7.30;80.40
51215;DHT22;63849;47.546;19.254;2023-01-15T12:31:05;7.20;80.00
51215;DHT22;63849;47.546;19.254;2023-01-15T12:36:49;7.20;80.40
51215;DHT22;63849;47.546;19.254;2023-01-15T12:39:23;7.20;80.80
51215;DHT22;63849;47.546;19.254;2023-01-15T12:41:56;7.20;80.30
51215;DHT22;63849;47.546;19.254;2023-01-15T12:44:53;7.20;80.80
51215;DHT22;63849;47.546;19.254;2023-01-15T12:55:32;7.20;80.40
51215;DHT22;63849;47.546;19.254;2023-01-15T12:58:00;7.30;80.90
51215;DHT22;63849;47.546;19.254;2023-01-15T13:00:38;7.30;80.80
51215;DHT22;63849;47.546;19.254;2023-01-15T13:03:22;7.20;80.40
51215;DHT22;63849;47.546;19.254;2023-01-15T13:05:56;7.20;80.40
51215;DHT22;63849;47.546;19.254;2023-01-15T13:10:51;7.20;80.70
51215;DHT22;63849;47.546;19.254;2023-01-15T13:13:43;7.20;81.00
51215;DHT22;63849;47.546;19.254;2023-01-15T13:22:17;7.30;80.70
51215;DHT22;63849;47.546;19.254;2023-01-15T13:27:27;7.30;80.50
51215;DHT22;63849;47.546;19.254;2023-01-15T13:30:00;7.40;80.90
51215;DHT22;63849;47.546;19.254;2023-01-15T13:32:42;7.30;80.80
51215;DHT22;63849;47.546;19.254;2023-01-15T13:35:11;7.30;80.20
51215;DHT22;63849;47.546;19.254;2023-01-15T13:37:47;7.40;80.60
51215;DHT22;63849;47.546;19.254;2023-01-15T13:40:41;7.40;80.60
51215;DHT22;63849;47.546;19.254;2023-01-15T13:45:53;7.40;80.70
51215;DHT22;63849;47.546;19.254;2023-01-15T13:48:30;7.40;80.40
51215;DHT22;63849;47.546;19.254;2023-01-15T13:50:59;7.40;80.20
51215;DHT22;63849;47.546;19.254;2023-01-15T13:53:38;7.30;80.20
51215;DHT22;63849;47.546;19.254;2023-01-15T13:56:11;7.30;80.20
51215;DHT22;63849;47.546;19.254;2023-01-15T13:58:52;7.30;80.60
51215;DHT22;63849;47.546;19.254;2023-01-15T14:06:43;7.30;80.50
51215;DHT22;63849;47.546;19.254;2023-01-15T14:12:09;7.30;80.50
51215;DHT22;63849;47.546;19.254;2023-01-15T14:17:12;7.30;80.50
51215;DHT22;63849;47.546;19.254;2023-01-15T14:25:54;7.30;80.70
51215;DHT22;63849;47.546;19.254;2023-01-15T14:36:29;7.20;80.70
51215;DHT22;63849;47.546;19.254;2023-01-15T14:39:00;7.20;80.70
51215;DHT22;63849;47.546;19.254;2023-01-15T14:41:32;7.30;81.10
51215;DHT22;63849;47.546;19.254;2023-01-15T14:44:01;7.20;80.80
51215;DHT22;63849;47.546;19.254;2023-01-15T14:46:32;7.20;80.90
51215;DHT22;63849;47.546;19.254;2023-01-15T14:49:00;7.20;80.90
51215;DHT22;63849;47.546;19.254;2023-01-15T14:51:34;7.20;81.00
51215;DHT22;63849;47.546;19.254;2023-01-15T14:54:14;7.20;80.90
51215;DHT22;63849;47.546;19.254;2023-01-15T14:56:48;7.20;80.80
51215;DHT22;63849;47.546;19.254;2023-01-15T14:59:45;7.20;80.70
51215;DHT22;63849;47.546;19.254;2023-01-15T15:02:32;7.20;81.00
51215;DHT22;63849;47.546;19.254;2023-01-15T15:04:59;7.20;81.00
51215;DHT22;63849;47.546;19.254;2023-01-15T15:07:27;7.20;80.90
51215;DHT22;63849;47.546;19.254;2023-01-15T15:10:04;7.20;81.00
51215;DHT22;63849;47.546;19.254;2023-01-15T15:17:52;7.20;81.10
51215;DHT22;63849;47.546;19.254;2023-01-15T15:25:54;7.20;81.50
51215;DHT22;63849;47.546;19.254;2023-01-15T15:28:20;7.20;81.40
51215;DHT22;63849;47.546;19.254;2023-01-15T15:30:46;7.20;81.30
51215;DHT22;63849;47.546;19.254;2023-01-15T15:33:25;7.20;81.40
51215;DHT22;63849;47.546;19.254;2023-01-15T15:35:58;7.20;81.50
51215;DHT22;63849;47.546;19.254;2023-01-15T15:38:25;7.20;81.50
51215;DHT22;63849;47.546;19.254;2023-01-15T15:40:57;7.20;81.50
51215;DHT22;63849;47.546;19.254;2023-01-15T15:46:27;7.10;81.30
51215;DHT22;63849;47.546;19.254;2023-01-15T15:49:11;7.10;81.40
51215;DHT22;63849;47.546;19.254;2023-01-15T15:51:48;7.10;81.40
51215;DHT22;63849;47.546;19.254;2023-01-15T15:54:26;7.20;81.30
51215;DHT22;63849;47.546;19.254;2023-01-15T15:57:04;7.20;81.30
51215;DHT22;63849;47.546;19.254;2023-01-15T15:59:37;7.10;81.30
51215;DHT22;63849;47.546;19.254;2023-01-15T16:02:30;7.20;81.30
51215;DHT22;63849;47.546;19.254;2023-01-15T16:05:00;7.20;81.50
51215;DHT22;63849;47.546;19.254;2023-01-15T16:07:31;7.20;81.40
51215;DHT22;63849;47.546;19.254;2023-01-15T16:12:50;7.10;81.30
51215;DHT22;63849;47.546;19.254;2023-01-15T16:15:19;7.10;81.20
51215;DHT22;63849;47.546;19.254;2023-01-15T16:17:46;7.10;81.30
51215;DHT22;63849;47.546;19.254;2023-01-15T16:20:15;7.10;81.30
51215;DHT22;63849;47.546;19.254;2023-01-15T16:22:55;7.10;81.30
51215;DHT22;63849;47.546;19.254;2023-01-15T16:25:37;7.10;81.30
51215;DHT22;63849;47.546;19.254;2023-01-15T16:28:04;7.20;81.50
51215;DHT22;63849;47.546;19.254;2023-01-15T16:30:31;7.10;81.50
51215;DHT22;63849;47.546;19.254;2023-01-15T16:33:05;7.10;81.40
51215;DHT22;63849;47.546;19.254;2023-01-15T16:35:33;7.10;81.50
51215;DHT22;63849;47.546;19.254;2023-01-15T16:38:02;7.10;81.30
51215;DHT22;63849;47.546;19.254;2023-01-15T16:40:34;7.10;81.50
51215;DHT22;63849;47.546;19.254;2023-01-15T16:43:12;7.10;81.40
51215;DHT22;63849;47.546;19.254;2023-01-15T16:48:27;7.10;81.50
51215;DHT22;63849;47.546;19.254;2023-01-15T16:53:52;7.10;81.80
51215;DHT22;63849;47.546;19.254;2023-01-15T16:56:47;7.10;81.70
51215;DHT22;63849;47.546;19.254;2023-01-15T16:59:52;7.10;81.80
51215;DHT22;63849;47.546;19.254;2023-01-15T17:02:16;7.10;81.70
51215;DHT22;63849;47.546;19.254;2023-01-15T17:04:45;7.10;81.80
51215;DHT22;63849;47.546;19.254;2023-01-15T17:07:36;7.10;81.60
51215;DHT22;63849;47.546;19.254;2023-01-15T17:10:05;7.10;81.90
51215;DHT22;63849;47.546;19.254;2023-01-15T17:12:42;7.10;81.90
51215;DHT22;63849;47.546;19.254;2023-01-15T17:17:44;7.10;81.80
51215;DHT22;63849;47.546;19.254;2023-01-15T17:20:14;7.10;81.70
51215;DHT22;63849;47.546;19.254;2023-01-15T17:22:41;7.10;81.90
51215;DHT22;63849;47.546;19.254;2023-01-15T17:25:38;7.10;82.40
51215;DHT22;63849;47.546;19.254;2023-01-15T17:28:04;7.10;82.30
51215;DHT22;63849;47.546;19.254;2023-01-15T17:30:30;7.10;82.70
51215;DHT22;63849;47.546;19.254;2023-01-15T17:33:01;7.10;82.80
51215;DHT22;63849;47.546;19.254;2023-01-15T17:35:30;7.10;82.90
51215;DHT22;63849;47.546;19.254;2023-01-15T17:37:56;7.10;83.10
51215;DHT22;63849;47.546;19.254;2023-01-15T17:40:22;7.10;83.40
51215;DHT22;63849;47.546;19.254;2023-01-15T17:42:48;7.10;83.50
51215;DHT22;63849;47.546;19.254;2023-01-15T17:45:23;7.10;83.50
51215;DHT22;63849;47.546;19.254;2023-01-15T17:47:49;7.10;83.70
51215;DHT22;63849;47.546;19.254;2023-01-15T17:50:15;7.10;83.70
51215;DHT22;63849;47.546;19.254;2023-01-15T17:52:41;7.10;83.90
51215;DHT22;63849;47.546;19.254;2023-01-15T17:55:18;7.00;83.90
51215;DHT22;63849;47.546;19.254;2023-01-15T17:58:03;7.00;83.90
51215;DHT22;63849;47.546;19.254;2023-01-15T18:00:48;7.10;84.20
51215;DHT22;63849;47.546;19.254;2023-01-15T18:03:34;7.00;84.10
51215;DHT22;63849;47.546;19.254;2023-01-15T18:06:20;7.10;84.40
51215;DHT22;63849;47.546;19.254;2023-01-15T18:08:51;7.00;84.60
51215;DHT22;63849;47.546;19.254;2023-01-15T18:11:18;7.00;84.40